Ghazvin, Qazvin Airport (OIIK)

NameQazvin Airport
CityGhazvin
CountryIran (Islamic Republic of)
ICAOOIIK
IATAGZW
Altitude1275 m
CoordinatesGoogle Map
Live Air TrafficLiveATC.net
METAROIIK 211552Z 28002KT CAVOK 13/08 Q1021
2019-10-21 15:52:00 Wind: West (280°) 1.03 m/s - Visibility: > 10000 m - Weather: CAVOK - Temperature: 13 °C - Dew point: 8 °C - Humidity: 71.9% - Pressure: 1021 hPa

Sorry, no flights used the airport in this database.